createdAt,value
2018-07-27T05:10:49.001Z,28.00
2018-07-27T05:15:53.814Z,28.10
2018-07-27T05:20:58.483Z,28.30
2018-07-27T05:26:03.404Z,28.50
2018-07-27T05:31:07.969Z,28.70
2018-07-27T05:36:12.532Z,29.00
2018-07-27T05:41:17.089Z,29.10
2018-07-27T05:46:21.653Z,29.30
2018-07-27T05:51:26.336Z,29.50
2018-07-27T05:56:31.673Z,30.00
2018-07-27T06:01:36.296Z,30.30
2018-07-27T06:06:40.981Z,30.60
2018-07-27T06:11:45.541Z,30.90
2018-07-27T06:21:55.026Z,31.70
2018-07-27T06:26:59.708Z,32.00
2018-07-27T06:32:04.391Z,32.30
2018-07-27T06:37:09.555Z,32.70
2018-07-27T06:42:14.594Z,33.20
2018-07-27T06:47:19.158Z,33.70
2018-07-27T06:52:23.921Z,34.00
2018-07-27T06:57:28.421Z,34.50
2018-07-27T07:02:33.080Z,34.70
2018-07-27T07:12:41.965Z,35.60
2018-07-27T07:17:48.578Z,36.20
2018-07-27T07:22:53.610Z,33.60
2018-07-27T07:27:58.307Z,37.00
2018-07-27T07:33:03.146Z,37.20
2018-07-27T07:38:07.713Z,37.50
2018-07-27T07:43:12.347Z,37.80
2018-07-27T07:48:17.018Z,36.10
2018-07-27T07:53:21.704Z,37.80
2018-07-27T07:58:26.441Z,38.20
2018-07-27T08:03:33.468Z,37.30
2018-07-27T08:08:38.028Z,39.10
2018-07-27T08:13:42.848Z,36.90
2018-07-27T08:18:47.508Z,38.90
2018-07-27T08:23:52.431Z,37.40
2018-07-27T08:28:56.994Z,39.40
2018-07-27T08:34:01.917Z,40.60
2018-07-27T08:39:09.610Z,41.00
2018-07-27T08:49:20.403Z,40.70
2018-07-27T08:54:25.105Z,40.70
2018-07-27T08:59:29.647Z,40.70
2018-07-27T09:04:34.567Z,40.70
2018-07-27T09:09:39.133Z,41.90
2018-07-27T09:14:43.930Z,42.30
2018-07-27T09:19:48.858Z,41.20
2018-07-27T09:24:53.820Z,41.10
2018-07-27T09:29:58.462Z,41.90
2018-07-27T09:35:03.052Z,41.50
2018-07-27T09:40:07.937Z,42.40
2018-07-27T09:45:12.627Z,42.90
2018-07-27T09:50:17.420Z,42.40
2018-07-27T09:55:21.989Z,42.50
2018-07-27T10:00:31.825Z,42.10
2018-07-27T10:05:36.507Z,41.80
2018-07-27T10:10:41.255Z,42.30
2018-07-27T10:15:45.748Z,42.90
2018-07-27T10:20:50.915Z,43.10
2018-07-27T10:25:55.531Z,43.30
2018-07-27T10:31:01.419Z,43.40
2018-07-27T10:36:06.037Z,44.00
2018-07-27T10:41:11.319Z,43.90
2018-07-27T10:46:15.879Z,43.30
2018-07-27T10:51:21.407Z,42.80
2018-07-27T10:56:26.527Z,42.70
2018-07-27T11:01:31.370Z,43.70
2018-07-27T11:06:36.166Z,43.70
2018-07-27T11:11:40.848Z,43.80
2018-07-27T11:16:45.530Z,40.30
2018-07-27T11:21:50.105Z,42.70
2018-07-27T11:26:55.027Z,43.90
2018-07-27T11:31:59.575Z,43.80
2018-07-27T11:37:04.403Z,44.80
2018-07-27T11:42:09.094Z,45.80
2018-07-27T11:47:13.747Z,45.20
2018-07-27T11:52:19.152Z,45.80
2018-07-27T12:02:27.665Z,44.70
2018-07-27T12:07:32.323Z,46.40
2018-07-27T12:12:36.416Z,45.00
2018-07-27T12:17:40.695Z,43.50
2018-07-27T12:22:47.790Z,45.00
2018-07-27T12:27:51.942Z,43.20
2018-07-27T12:32:56.054Z,45.70
2018-07-27T12:38:00.154Z,47.10
2018-07-27T12:43:04.453Z,46.50
2018-07-27T12:48:09.141Z,44.60
2018-07-27T12:53:13.221Z,45.60
2018-07-27T12:58:17.383Z,46.50
2018-07-27T13:08:25.269Z,45.20
2018-07-27T13:13:29.373Z,46.60
2018-07-27T13:18:33.557Z,47.80
2018-07-27T13:23:38.996Z,46.50
2018-07-27T13:28:43.795Z,45.70
2018-07-27T13:34:54.810Z,46.80
2018-07-27T13:40:00.150Z,47.50
2018-07-27T13:45:04.900Z,47.70
2018-07-27T13:50:09.049Z,47.50
2018-07-27T13:55:13.412Z,47.30
2018-07-27T14:00:18.598Z,46.10
2018-07-27T14:05:23.254Z,44.20
2018-07-27T14:10:27.368Z,45.50
2018-07-27T14:15:31.740Z,46.80
2018-07-27T14:20:35.955Z,48.00
2018-07-27T14:25:40.124Z,45.10
2018-07-27T14:30:45.054Z,46.40
2018-07-27T14:35:49.264Z,47.60
2018-07-27T14:40:54.271Z,47.80
2018-07-27T14:45:58.432Z,44.80
2018-07-27T14:51:03.149Z,43.20
2018-07-27T14:56:07.550Z,40.90
2018-07-27T15:01:11.763Z,41.10
2018-07-27T15:06:16.720Z,43.90
2018-07-27T15:16:24.573Z,43.80
2018-07-27T15:21:28.783Z,44.20
2018-07-27T15:26:32.956Z,44.90
2018-07-27T15:31:37.080Z,44.30
2018-07-27T15:36:41.217Z,43.70
2018-07-27T15:41:45.341Z,43.60
2018-07-27T15:46:49.457Z,41.90
2018-07-27T15:51:53.585Z,42.30
2018-07-27T15:56:57.661Z,41.90
2018-07-27T16:02:01.985Z,41.60
2018-07-27T16:07:07.586Z,41.00
2018-07-27T16:12:11.713Z,41.50
2018-07-27T16:17:15.903Z,42.60
2018-07-27T16:22:20.013Z,42.10
2018-07-27T16:27:24.182Z,41.30
2018-07-27T16:32:31.191Z,41.60
2018-07-27T16:37:35.404Z,40.50
2018-07-27T16:47:43.858Z,40.00
2018-07-27T16:52:48.034Z,39.80
2018-07-27T16:57:52.131Z,38.90
2018-07-27T17:02:56.265Z,37.60
2018-07-27T17:08:00.328Z,36.80
2018-07-27T17:13:04.562Z,36.40
2018-07-27T17:18:08.970Z,36.30
2018-07-27T17:23:13.561Z,36.20
2018-07-27T17:28:17.753Z,36.50
2018-07-27T17:33:21.964Z,36.70
2018-07-27T17:38:26.107Z,36.40
2018-07-27T17:43:30.217Z,36.20
2018-07-27T17:48:34.827Z,36.20
2018-07-27T17:53:39.195Z,35.80
2018-07-27T17:58:43.376Z,35.80
2018-07-27T18:03:47.591Z,35.70
2018-07-27T18:08:51.738Z,35.30
2018-07-27T18:19:02.788Z,35.00
2018-07-27T18:24:07.889Z,34.70
2018-07-27T18:29:12.986Z,34.60
2018-07-27T18:34:17.079Z,34.80
2018-07-27T18:39:22.278Z,34.80
2018-07-27T18:49:31.353Z,34.40
2018-07-27T18:54:35.482Z,34.30
2018-07-27T18:59:39.760Z,34.00
2018-07-27T19:04:43.845Z,33.50
2018-07-27T19:09:47.972Z,33.60
2018-07-27T19:14:52.057Z,33.50
2018-07-27T19:19:56.635Z,33.10
2018-07-27T19:25:00.852Z,33.20
2018-07-27T19:30:07.266Z,32.80
2018-07-27T19:35:11.546Z,32.80
2018-07-27T19:40:15.699Z,32.60
2018-07-27T19:45:19.954Z,32.50
2018-07-27T19:50:24.192Z,32.50
2018-07-27T19:55:29.580Z,32.20
2018-07-27T20:00:34.005Z,32.00
2018-07-27T20:05:38.225Z,32.10
2018-07-27T20:10:42.433Z,31.90
2018-07-27T20:15:46.473Z,31.90
2018-07-27T20:20:50.574Z,31.60
2018-07-27T20:25:54.784Z,31.70
2018-07-27T20:30:59.036Z,31.60
2018-07-27T20:36:03.174Z,31.30
2018-07-27T20:41:07.563Z,31.30
2018-07-27T20:46:11.759Z,31.30
2018-07-27T20:51:16.029Z,31.40
2018-07-27T20:56:21.014Z,31.20
2018-07-27T21:01:25.173Z,31.30
2018-07-27T21:06:30.337Z,30.90
2018-07-27T21:11:34.655Z,30.60
2018-07-27T21:16:39.809Z,30.50
2018-07-27T21:21:46.178Z,30.30
2018-07-27T21:26:50.564Z,30.10
2018-07-27T21:31:54.928Z,29.70
2018-07-27T21:42:02.876Z,29.60
2018-07-27T21:47:07.139Z,29.40
2018-07-27T21:52:11.321Z,29.00
2018-07-27T21:57:16.582Z,28.60
2018-07-27T22:02:20.757Z,28.60
2018-07-27T22:07:24.974Z,28.60
2018-07-27T22:12:29.230Z,28.60
2018-07-27T22:17:33.500Z,28.80
2018-07-27T22:22:37.719Z,28.80
2018-07-27T22:27:42.133Z,28.80
2018-07-27T22:32:46.392Z,28.80
2018-07-27T22:37:50.545Z,28.80
2018-07-27T22:42:54.628Z,28.70
2018-07-27T22:47:58.713Z,28.80
2018-07-27T22:58:07.698Z,28.70
2018-07-27T23:03:14.671Z,28.60
2018-07-27T23:08:18.857Z,28.60
2018-07-27T23:13:23.080Z,28.40
2018-07-27T23:18:27.400Z,28.30
2018-07-27T23:23:31.829Z,28.30
2018-07-27T23:28:37.015Z,28.30
2018-07-27T23:33:42.101Z,28.30
2018-07-27T23:38:47.182Z,28.20
2018-07-27T23:43:51.335Z,28.20
2018-07-27T23:48:55.497Z,28.10
2018-07-27T23:53:59.619Z,28.10
2018-07-27T23:59:04.565Z,28.10
